createdAt,value
2022-09-15T00:00:10.542Z,4.00
2022-09-15T00:02:58.166Z,4.10
2022-09-15T00:05:25.830Z,4.10
2022-09-15T00:07:53.363Z,4.20
2022-09-15T00:10:20.992Z,4.20
2022-09-15T00:12:48.560Z,4.10
2022-09-15T00:15:17.716Z,4.00
2022-09-15T00:17:49.229Z,3.80
2022-09-15T00:20:18.114Z,3.90
2022-09-15T00:22:46.257Z,4.50
2022-09-15T00:25:14.656Z,4.00
2022-09-15T00:27:42.328Z,4.20
2022-09-15T00:30:10.107Z,4.10
2022-09-15T00:32:37.725Z,3.80
2022-09-15T00:35:05.479Z,3.40
2022-09-15T00:37:33.628Z,3.60
2022-09-15T00:40:01.322Z,3.90
2022-09-15T00:42:29.217Z,4.50
2022-09-15T00:44:58.457Z,3.90
2022-09-15T00:47:28.914Z,4.10
2022-09-15T00:50:16.775Z,4.00
2022-09-15T00:52:47.332Z,3.50
2022-09-15T00:55:14.949Z,4.00
2022-09-15T00:57:48.254Z,4.30
2022-09-15T01:00:18.463Z,4.20
2022-09-15T01:02:47.332Z,4.10
2022-09-15T01:05:17.933Z,4.00
2022-09-15T01:07:57.637Z,4.10
2022-09-15T01:10:29.790Z,3.90
2022-09-15T01:12:59.024Z,4.30
2022-09-15T01:15:46.818Z,4.70
2022-09-15T01:18:23.666Z,4.20
2022-09-15T01:20:51.204Z,4.20
2022-09-15T01:23:31.221Z,3.90
2022-09-15T01:26:09.546Z,4.20
2022-09-15T01:29:06.323Z,4.30
2022-09-15T01:31:58.873Z,4.50
2022-09-15T01:34:27.637Z,4.80
2022-09-15T01:36:57.516Z,4.20
2022-09-15T01:39:25.831Z,4.00
2022-09-15T01:41:56.060Z,4.20
2022-09-15T01:44:25.648Z,4.30
2022-09-15T01:46:55.382Z,4.30
2022-09-15T01:49:25.795Z,4.50
2022-09-15T01:51:54.121Z,4.10
2022-09-15T01:54:24.364Z,4.70
2022-09-15T01:56:52.339Z,5.20
2022-09-15T01:59:20.320Z,4.90
2022-09-15T02:01:57.606Z,5.00
2022-09-15T02:04:37.950Z,4.70
2022-09-15T02:07:20.371Z,5.10
2022-09-15T02:09:50.945Z,5.60
2022-09-15T02:12:21.966Z,5.60
2022-09-15T02:14:56.361Z,5.20
2022-09-15T02:17:25.204Z,5.40
2022-09-15T02:19:55.672Z,5.20
2022-09-15T02:22:28.861Z,5.20
2022-09-15T02:25:04.143Z,5.20
2022-09-15T02:27:37.961Z,5.00
2022-09-15T02:30:08.044Z,5.80
2022-09-15T02:32:37.198Z,6.40
2022-09-15T02:35:06.719Z,6.20
2022-09-15T02:37:36.448Z,5.80
2022-09-15T02:40:04.857Z,6.00
2022-09-15T02:42:33.362Z,5.90
2022-09-15T02:45:01.589Z,5.50
2022-09-15T02:47:29.503Z,5.50
2022-09-15T02:49:57.236Z,6.60
2022-09-15T02:52:24.808Z,6.00
2022-09-15T02:54:52.450Z,6.50
2022-09-15T02:57:20.023Z,6.40
2022-09-15T03:00:06.223Z,5.80
2022-09-15T03:02:34.683Z,6.70
2022-09-15T03:05:02.520Z,6.40
2022-09-15T03:07:30.218Z,6.30
2022-09-15T03:09:58.519Z,6.70
2022-09-15T03:12:26.471Z,9.60
2022-09-15T03:14:54.050Z,7.40
2022-09-15T03:17:21.629Z,8.60
2022-09-15T03:19:50.623Z,9.80
2022-09-15T03:22:18.308Z,11.90
2022-09-15T03:24:45.959Z,8.50
2022-09-15T03:27:13.559Z,9.30
2022-09-15T03:29:41.170Z,7.50
2022-09-15T03:32:09.086Z,6.80
2022-09-15T03:34:38.509Z,7.30
2022-09-15T03:37:07.003Z,7.90
2022-09-15T03:39:34.659Z,7.10
2022-09-15T03:42:02.256Z,7.10
2022-09-15T03:44:30.138Z,6.70
2022-09-15T03:46:58.371Z,6.70
2022-09-15T03:49:26.013Z,7.30
2022-09-15T03:51:53.597Z,7.30
2022-09-15T03:54:21.248Z,6.70
2022-09-15T03:56:49.462Z,7.00
2022-09-15T03:59:18.995Z,6.80
2022-09-15T04:01:47.337Z,6.30
2022-09-15T04:04:15.116Z,7.10
2022-09-15T04:06:42.717Z,7.10
2022-09-15T04:09:10.779Z,6.60
2022-09-15T04:11:39.783Z,7.10
2022-09-15T04:14:07.744Z,6.60
2022-09-15T04:16:35.377Z,6.30
2022-09-15T04:19:03.023Z,6.60
2022-09-15T04:21:32.157Z,6.60
2022-09-15T04:23:59.775Z,7.50
2022-09-15T04:26:31.498Z,5.80
2022-09-15T04:29:03.623Z,6.50
2022-09-15T04:33:59.583Z,6.30
2022-09-15T04:36:28.373Z,6.20
2022-09-15T04:38:56.411Z,6.00
2022-09-15T04:41:24.638Z,6.40
2022-09-15T04:43:52.633Z,6.70
2022-09-15T04:46:20.365Z,6.40
2022-09-15T04:48:48.949Z,6.60
2022-09-15T04:51:17.978Z,6.40
2022-09-15T04:53:46.143Z,6.20
2022-09-15T04:56:14.829Z,6.80
2022-09-15T04:58:43.906Z,6.50
2022-09-15T05:01:13.502Z,6.50
2022-09-15T05:03:41.822Z,6.80
2022-09-15T05:06:11.530Z,6.40
2022-09-15T05:08:39.539Z,7.00
2022-09-15T05:11:08.212Z,7.60
2022-09-15T05:13:36.145Z,6.70
2022-09-15T05:16:04.745Z,7.30
2022-09-15T05:18:33.234Z,7.60
2022-09-15T05:21:01.983Z,6.10
2022-09-15T05:23:30.282Z,6.90
2022-09-15T05:25:58.616Z,8.10
2022-09-15T05:28:26.747Z,7.30
2022-09-15T05:30:55.106Z,7.10
2022-09-15T05:33:23.365Z,7.50
2022-09-15T05:35:54.803Z,7.00
2022-09-15T05:38:22.700Z,7.20
2022-09-15T05:40:50.608Z,7.90
2022-09-15T05:43:18.384Z,7.10
2022-09-15T05:45:53.805Z,7.30
2022-09-15T05:48:22.118Z,7.50
2022-09-15T05:50:50.739Z,7.10
2022-09-15T05:53:18.571Z,7.30
2022-09-15T05:55:46.677Z,7.00
2022-09-15T05:58:15.006Z,6.80
2022-09-15T06:00:42.959Z,6.70
2022-09-15T06:03:14.631Z,6.50
2022-09-15T06:05:42.776Z,6.50
2022-09-15T06:08:10.741Z,6.40
2022-09-15T06:10:38.723Z,6.90
2022-09-15T06:13:06.381Z,6.90
2022-09-15T06:15:34.344Z,6.60
2022-09-15T06:18:02.842Z,6.70
2022-09-15T06:20:30.410Z,6.40
2022-09-15T06:22:58.025Z,6.00
2022-09-15T06:25:25.662Z,6.10
2022-09-15T06:27:53.248Z,6.20
2022-09-15T06:30:20.773Z,6.60
2022-09-15T06:32:48.528Z,6.00
2022-09-15T06:35:16.179Z,6.00
2022-09-15T06:37:43.774Z,6.80
2022-09-15T06:40:11.589Z,5.70
2022-09-15T06:42:39.292Z,5.80
2022-09-15T06:45:07.072Z,5.90
2022-09-15T06:47:35.540Z,5.50
2022-09-15T06:50:03.647Z,5.50
2022-09-15T06:52:31.275Z,5.30
2022-09-15T06:54:58.871Z,5.40
2022-09-15T06:57:26.472Z,5.40
2022-09-15T06:59:54.093Z,5.80
2022-09-15T07:02:21.851Z,5.30
2022-09-15T07:04:50.031Z,4.80
2022-09-15T07:07:17.711Z,4.90
2022-09-15T07:09:48.884Z,5.20
2022-09-15T07:12:16.866Z,4.70
2022-09-15T07:14:44.667Z,4.90
2022-09-15T07:17:12.236Z,4.60
2022-09-15T07:19:41.445Z,5.30
2022-09-15T07:22:09.321Z,4.80
2022-09-15T07:24:36.971Z,4.40
2022-09-15T07:27:04.595Z,4.00
2022-09-15T07:29:35.871Z,4.20
2022-09-15T07:32:06.054Z,3.80
2022-09-15T07:34:33.781Z,4.00
2022-09-15T07:37:01.355Z,4.20
2022-09-15T07:39:29.104Z,3.80
2022-09-15T07:41:56.667Z,3.60
2022-09-15T07:44:24.301Z,3.60
2022-09-15T07:46:51.894Z,3.80
2022-09-15T07:49:19.508Z,3.90
2022-09-15T07:51:49.170Z,4.20
2022-09-15T07:54:21.486Z,3.70
2022-09-15T07:56:50.377Z,3.90
2022-09-15T07:59:17.989Z,3.60
2022-09-15T08:01:45.703Z,3.90
2022-09-15T08:04:13.477Z,3.90
2022-09-15T08:06:41.192Z,3.80
2022-09-15T08:09:14.623Z,3.40
2022-09-15T08:11:45.103Z,3.30
2022-09-15T08:14:12.901Z,3.10
2022-09-15T08:16:40.520Z,3.40
2022-09-15T08:19:08.094Z,3.30
2022-09-15T08:21:35.853Z,3.30
2022-09-15T08:24:03.521Z,3.60
2022-09-15T08:26:31.502Z,3.00
2022-09-15T08:28:59.515Z,2.80
2022-09-15T08:31:27.142Z,2.60
2022-09-15T08:33:55.478Z,3.00
2022-09-15T08:36:24.640Z,2.80
2022-09-15T08:38:52.352Z,2.90
2022-09-15T08:41:25.588Z,2.10
2022-09-15T08:44:03.025Z,2.50
2022-09-15T08:46:37.237Z,2.20
2022-09-15T08:49:35.483Z,2.20
2022-09-15T08:52:11.163Z,2.30
2022-09-15T08:54:39.024Z,3.00
2022-09-15T08:57:11.167Z,2.50
2022-09-15T08:59:40.020Z,2.40
2022-09-15T09:02:23.781Z,2.60
2022-09-15T09:05:10.081Z,2.20
2022-09-15T09:07:40.465Z,2.40
2022-09-15T09:10:23.080Z,2.10
2022-09-15T09:12:58.715Z,2.50
2022-09-15T09:15:26.464Z,2.00
2022-09-15T09:18:12.056Z,2.60
2022-09-15T09:21:08.773Z,2.70
2022-09-15T09:23:43.083Z,2.50
2022-09-15T09:26:12.384Z,2.10
2022-09-15T09:28:42.450Z,2.40
2022-09-15T09:31:15.363Z,2.30
2022-09-15T09:33:49.247Z,1.60
2022-09-15T09:36:17.217Z,2.00
2022-09-15T09:38:45.922Z,1.90
2022-09-15T09:41:26.049Z,1.70
2022-09-15T09:43:55.144Z,1.70
2022-09-15T09:46:22.931Z,1.40
2022-09-15T09:49:06.714Z,1.30
2022-09-15T09:54:21.493Z,1.40
2022-09-15T09:56:50.282Z,1.20
2022-09-15T09:59:35.335Z,1.30
2022-09-15T10:02:05.978Z,1.40
2022-09-15T10:04:33.930Z,1.30
2022-09-15T10:07:02.410Z,1.20
2022-09-15T10:09:33.237Z,1.20
2022-09-15T10:12:03.845Z,1.40
2022-09-15T10:14:35.845Z,1.00
2022-09-15T10:17:08.446Z,1.20
2022-09-15T10:19:56.258Z,1.10
2022-09-15T10:22:26.556Z,1.00
2022-09-15T10:24:54.527Z,1.30
2022-09-15T10:27:35.596Z,1.20
2022-09-15T10:32:31.732Z,1.10
2022-09-15T10:35:04.957Z,1.00
2022-09-15T10:37:32.584Z,1.00
2022-09-15T10:40:00.863Z,0.90
2022-09-15T10:42:39.820Z,1.00
2022-09-15T10:45:14.988Z,1.00
2022-09-15T10:47:43.308Z,0.90
2022-09-15T10:50:28.141Z,1.50
2022-09-15T10:53:04.559Z,1.20
2022-09-15T10:55:53.383Z,1.10
2022-09-15T10:58:23.994Z,0.90
2022-09-15T11:01:06.929Z,1.10
2022-09-15T11:03:43.660Z,0.80
2022-09-15T11:06:14.581Z,1.10
2022-09-15T11:09:00.921Z,1.10
2022-09-15T11:11:47.117Z,0.80
2022-09-15T11:14:35.141Z,0.90
2022-09-15T11:17:06.028Z,0.90
2022-09-15T11:19:52.364Z,1.10
2022-09-15T11:22:22.677Z,1.00
2022-09-15T11:25:01.735Z,1.10
2022-09-15T11:27:40.026Z,1.60
2022-09-15T11:30:14.462Z,1.50
2022-09-15T11:32:50.953Z,1.00
2022-09-15T11:35:39.098Z,1.30
2022-09-15T11:38:24.359Z,1.00
2022-09-15T11:40:58.072Z,1.00
2022-09-15T11:43:37.726Z,0.90
2022-09-15T11:46:10.045Z,1.30
2022-09-15T11:48:44.070Z,0.90
2022-09-15T11:51:13.502Z,1.10
2022-09-15T11:53:41.062Z,1.40
2022-09-15T11:56:27.348Z,1.40
2022-09-15T11:59:13.602Z,1.20
2022-09-15T12:01:56.859Z,1.00
2022-09-15T12:04:35.543Z,1.10
2022-09-15T12:07:12.303Z,1.30
2022-09-15T12:09:42.047Z,1.00
2022-09-15T12:12:14.705Z,0.90
2022-09-15T12:14:43.618Z,0.90
2022-09-15T12:17:16.655Z,1.00
2022-09-15T12:19:48.943Z,1.60
2022-09-15T12:25:00.740Z,1.00
2022-09-15T12:27:29.217Z,1.10
2022-09-15T12:29:57.945Z,1.10
2022-09-15T12:32:29.699Z,1.00
2022-09-15T12:34:59.006Z,1.20
2022-09-15T12:37:30.557Z,1.00
2022-09-15T12:39:58.372Z,1.20
2022-09-15T12:42:31.434Z,1.10
2022-09-15T12:45:01.601Z,1.00
2022-09-15T12:47:32.315Z,0.90
2022-09-15T12:50:22.961Z,0.90
2022-09-15T12:52:57.230Z,0.90
2022-09-15T12:55:31.852Z,1.50
2022-09-15T12:58:01.003Z,1.10
2022-09-15T13:00:34.837Z,1.30
2022-09-15T13:03:03.777Z,1.40
2022-09-15T13:05:46.137Z,1.70
2022-09-15T13:08:19.097Z,1.00
2022-09-15T13:11:08.408Z,1.10
2022-09-15T13:13:40.977Z,1.30
2022-09-15T13:16:10.684Z,1.00
2022-09-15T13:18:38.847Z,1.00
2022-09-15T13:21:10.350Z,1.10
2022-09-15T13:23:40.060Z,0.80
2022-09-15T13:26:09.410Z,1.00
2022-09-15T13:28:37.677Z,1.00
2022-09-15T13:31:13.261Z,1.30
2022-09-15T13:39:47.218Z,1.00
2022-09-15T13:42:33.634Z,1.30
2022-09-15T13:45:04.192Z,1.00
2022-09-15T13:47:31.752Z,1.20
2022-09-15T13:50:18.853Z,1.30
2022-09-15T13:52:46.445Z,1.20
2022-09-15T13:55:23.317Z,1.10
2022-09-15T14:00:59.713Z,1.30
2022-09-15T14:03:33.980Z,1.60
2022-09-15T14:06:01.620Z,1.40
2022-09-15T14:08:32.486Z,1.20
2022-09-15T14:11:02.017Z,1.10
2022-09-15T14:13:30.518Z,1.20
2022-09-15T14:15:58.383Z,1.00
2022-09-15T14:18:26.129Z,1.20
2022-09-15T14:21:04.465Z,1.10
2022-09-15T14:23:33.144Z,1.00
2022-09-15T14:26:01.637Z,1.30
2022-09-15T14:28:35.051Z,0.90
2022-09-15T14:31:02.974Z,0.80
2022-09-15T14:33:38.221Z,1.10
2022-09-15T14:36:23.027Z,1.10
2022-09-15T14:39:04.676Z,1.40
2022-09-15T14:41:32.581Z,1.20
2022-09-15T14:44:00.522Z,1.50
2022-09-15T14:46:36.200Z,1.40
2022-09-15T14:49:11.055Z,1.30
2022-09-15T14:51:38.930Z,1.50
2022-09-15T14:54:08.240Z,1.60
2022-09-15T14:56:37.774Z,1.80
2022-09-15T14:59:07.558Z,1.10
2022-09-15T15:01:37.068Z,1.20
2022-09-15T15:04:20.119Z,1.50
2022-09-15T15:07:01.208Z,1.40
2022-09-15T15:09:38.097Z,1.10
2022-09-15T15:12:13.229Z,1.10
2022-09-15T15:14:42.645Z,1.20
2022-09-15T15:17:23.651Z,1.30
2022-09-15T15:19:57.818Z,1.10
2022-09-15T15:22:25.599Z,1.10
2022-09-15T15:24:53.447Z,0.90
2022-09-15T15:27:24.184Z,1.30
2022-09-15T15:29:52.910Z,1.00
2022-09-15T15:32:21.799Z,1.30
2022-09-15T15:34:50.712Z,1.20
2022-09-15T15:37:29.046Z,1.30
2022-09-15T15:39:57.613Z,1.10
2022-09-15T15:42:26.247Z,1.10
2022-09-15T15:45:09.568Z,1.10
2022-09-15T15:47:37.206Z,1.10
2022-09-15T15:50:14.010Z,1.30
2022-09-15T15:52:42.581Z,1.40
2022-09-15T15:55:13.145Z,1.00
2022-09-15T15:57:40.963Z,1.20
2022-09-15T16:00:30.538Z,1.20
2022-09-15T16:02:58.461Z,1.20
2022-09-15T16:05:27.300Z,1.60
2022-09-15T16:07:56.220Z,1.90
2022-09-15T16:10:24.717Z,1.70
2022-09-15T16:12:52.318Z,1.40
2022-09-15T16:15:20.945Z,1.40
2022-09-15T16:17:49.161Z,1.40
2022-09-15T16:20:17.396Z,1.30
2022-09-15T16:22:45.102Z,2.10
2022-09-15T16:25:27.788Z,1.10
2022-09-15T16:27:55.432Z,1.30
2022-09-15T16:30:23.118Z,1.20
2022-09-15T16:32:50.685Z,1.40
2022-09-15T16:35:36.369Z,1.20
2022-09-15T16:38:03.987Z,1.40
2022-09-15T16:40:31.612Z,1.60
2022-09-15T16:42:59.278Z,1.30
2022-09-15T16:45:40.527Z,1.40
2022-09-15T16:48:09.585Z,1.90
2022-09-15T16:50:39.852Z,1.40
2022-09-15T16:53:14.371Z,1.80
2022-09-15T16:55:49.027Z,1.90
2022-09-15T16:58:17.359Z,2.10
2022-09-15T17:00:45.990Z,1.90
2022-09-15T17:03:17.941Z,2.30
2022-09-15T17:05:52.066Z,1.90
2022-09-15T17:08:21.085Z,2.00
2022-09-15T17:10:49.046Z,1.70
2022-09-15T17:13:17.916Z,1.70
2022-09-15T17:15:46.336Z,2.00
2022-09-15T17:18:15.595Z,1.90
2022-09-15T17:20:44.009Z,1.80
2022-09-15T17:23:17.533Z,1.60
2022-09-15T17:25:51.423Z,1.70
2022-09-15T17:28:23.708Z,2.00
2022-09-15T17:30:52.501Z,1.80
2022-09-15T17:33:20.704Z,1.60
2022-09-15T17:35:48.588Z,1.70
2022-09-15T17:38:16.494Z,1.70
2022-09-15T17:40:44.065Z,1.60
2022-09-15T17:43:16.085Z,2.20
2022-09-15T17:45:43.836Z,2.00
2022-09-15T17:48:12.266Z,2.00
2022-09-15T17:50:41.775Z,2.30
2022-09-15T17:53:13.691Z,2.00
2022-09-15T17:55:41.483Z,2.40
2022-09-15T17:58:09.863Z,2.00
2022-09-15T18:00:38.825Z,2.50
2022-09-15T18:03:18.606Z,2.30
2022-09-15T18:05:46.188Z,2.30
2022-09-15T18:08:13.799Z,2.30
2022-09-15T18:10:41.492Z,2.60
2022-09-15T18:13:16.998Z,2.60
2022-09-15T18:15:44.633Z,2.90
2022-09-15T18:18:15.446Z,2.90
2022-09-15T18:20:43.747Z,2.70
2022-09-15T18:23:16.441Z,3.10
2022-09-15T18:25:44.633Z,2.60
2022-09-15T18:28:12.260Z,2.80
2022-09-15T18:30:41.340Z,2.80
2022-09-15T18:33:19.934Z,3.30
2022-09-15T18:35:51.241Z,3.90
2022-09-15T18:38:19.259Z,3.70
2022-09-15T18:40:49.115Z,4.10
2022-09-15T18:43:17.218Z,4.10
2022-09-15T18:45:44.826Z,4.10
2022-09-15T18:48:13.385Z,5.50
2022-09-15T18:50:41.593Z,4.50
2022-09-15T18:53:09.652Z,5.20
2022-09-15T18:55:40.256Z,5.40
2022-09-15T18:58:08.142Z,6.10
2022-09-15T19:00:35.971Z,6.30
2022-09-15T19:03:05.280Z,6.80
2022-09-15T19:05:32.996Z,6.20
2022-09-15T19:08:01.163Z,5.00
2022-09-15T19:10:29.284Z,5.30
2022-09-15T19:12:56.869Z,4.10
2022-09-15T19:15:24.595Z,4.00
2022-09-15T19:17:52.180Z,3.30
2022-09-15T19:20:19.733Z,3.50
2022-09-15T19:22:47.644Z,4.00
2022-09-15T19:25:15.316Z,3.50
2022-09-15T19:27:43.176Z,3.40
2022-09-15T19:30:12.266Z,3.60
2022-09-15T19:32:40.451Z,3.30
2022-09-15T19:35:08.776Z,2.80
2022-09-15T19:37:37.500Z,2.80
2022-09-15T19:40:08.689Z,3.20
2022-09-15T19:42:37.090Z,3.90
2022-09-15T19:45:04.791Z,3.90
2022-09-15T19:47:32.448Z,6.30
2022-09-15T19:50:00.093Z,4.30
2022-09-15T19:52:28.368Z,5.00
2022-09-15T19:54:56.027Z,3.90
2022-09-15T19:57:23.872Z,9.60
2022-09-15T19:59:51.480Z,11.50
2022-09-15T20:02:20.013Z,22.70
2022-09-15T20:07:35.120Z,47.80
2022-09-15T20:10:02.874Z,13.30
2022-09-15T20:12:31.215Z,32.90
2022-09-15T20:14:59.228Z,16.40
2022-09-15T20:17:26.869Z,6.20
2022-09-15T20:19:54.769Z,9.90
2022-09-15T20:22:22.449Z,26.90
2022-09-15T20:24:50.142Z,8.10
2022-09-15T20:27:17.723Z,4.10
2022-09-15T20:29:45.334Z,9.30
2022-09-15T20:32:13.025Z,5.70
2022-09-15T20:34:40.626Z,3.30
2022-09-15T20:37:08.267Z,4.60
2022-09-15T20:39:35.894Z,3.00
2022-09-15T20:42:03.611Z,3.20
2022-09-15T20:44:31.227Z,3.20
2022-09-15T20:46:58.815Z,3.90
2022-09-15T20:49:26.448Z,2.90
2022-09-15T20:51:54.129Z,2.90
2022-09-15T20:54:21.823Z,2.60
2022-09-15T20:56:49.428Z,2.70
2022-09-15T20:59:17.023Z,2.50
2022-09-15T21:01:44.707Z,2.80
2022-09-15T21:04:12.555Z,3.60
2022-09-15T21:06:40.253Z,3.40
2022-09-15T21:09:08.033Z,2.70
2022-09-15T21:11:35.929Z,3.30
2022-09-15T21:14:03.599Z,2.60
2022-09-15T21:16:33.874Z,2.30
2022-09-15T21:19:02.106Z,2.70
2022-09-15T21:21:30.708Z,2.50
2022-09-15T21:24:00.341Z,2.60
2022-09-15T21:26:29.064Z,2.70
2022-09-15T21:28:57.285Z,3.10
2022-09-15T21:31:26.635Z,2.80
2022-09-15T21:33:54.610Z,2.60
2022-09-15T21:36:24.041Z,2.60
2022-09-15T21:38:52.507Z,2.20
2022-09-15T21:41:21.595Z,5.30
2022-09-15T21:43:50.116Z,4.10
2022-09-15T21:46:18.440Z,11.20
2022-09-15T21:48:49.714Z,8.80
2022-09-15T21:51:23.981Z,4.50
2022-09-15T21:53:53.477Z,3.80
2022-09-15T21:56:22.000Z,3.10
2022-09-15T21:58:49.810Z,2.60
2022-09-15T22:01:19.861Z,2.80
2022-09-15T22:03:49.409Z,3.00
2022-09-15T22:06:17.381Z,2.70
2022-09-15T22:08:44.951Z,3.00
2022-09-15T22:11:12.635Z,2.60
2022-09-15T22:13:41.475Z,2.60
2022-09-15T22:16:13.885Z,2.60
2022-09-15T22:18:41.729Z,2.20
2022-09-15T22:21:13.922Z,2.50
2022-09-15T22:23:42.026Z,2.90
2022-09-15T22:26:11.426Z,2.90
2022-09-15T22:28:39.056Z,2.90
2022-09-15T22:31:08.500Z,2.50
2022-09-15T22:33:36.548Z,2.70
2022-09-15T22:36:06.048Z,2.50
2022-09-15T22:38:33.638Z,2.00
2022-09-15T22:41:09.248Z,2.60
2022-09-15T22:43:36.931Z,2.60
2022-09-15T22:46:05.129Z,2.70
2022-09-15T22:48:32.765Z,2.90
2022-09-15T22:51:00.776Z,2.80
2022-09-15T22:53:28.406Z,2.80
2022-09-15T22:56:05.379Z,2.30
2022-09-15T22:58:36.717Z,2.70
2022-09-15T23:01:05.624Z,2.70
2022-09-15T23:03:33.380Z,2.90
2022-09-15T23:06:02.101Z,2.90
2022-09-15T23:08:30.418Z,3.20
2022-09-15T23:11:08.620Z,2.90
2022-09-15T23:13:36.222Z,2.50
2022-09-15T23:16:04.516Z,2.70
2022-09-15T23:18:32.660Z,2.50
2022-09-15T23:21:01.648Z,3.00
2022-09-15T23:23:29.673Z,2.90
2022-09-15T23:25:57.248Z,3.30
2022-09-15T23:28:25.098Z,3.20
2022-09-15T23:30:53.457Z,2.60
2022-09-15T23:33:21.908Z,2.80
2022-09-15T23:35:49.824Z,2.90
2022-09-15T23:38:18.328Z,3.30
2022-09-15T23:40:46.976Z,3.30
2022-09-15T23:43:15.558Z,3.00
2022-09-15T23:45:43.629Z,3.30
2022-09-15T23:48:11.931Z,2.70
2022-09-15T23:50:40.252Z,2.90
2022-09-15T23:53:08.147Z,2.50
2022-09-15T23:55:36.199Z,2.90
2022-09-15T23:58:04.791Z,3.00
